Terminal Aerodrome Forecast
Issued by NWS Quad Cities IA IL

Home | Current Version | Previous Version | Text Only | Print | Product List | Glossary On
Versions: 1 2 3 4 5 6 7 8 9 10 11 12 13 14 15 16 17 18 19 20 21 22
000
FTUS43 KDVN 182100 AAB
TAFDBQ
TAF AMD
KDBQ 182131Z 1822/1918 33003KT P6SM FEW015 BKN150
      TEMPO 1822/1902 BKN015
     FM190900 VRB02KT P6SM BKN060=

USA.gov is the U.S. government's official web portal to all federal, state and local government web resources and services.